NCAR-RAP Real-Time Weather Data

Output produced by METARs form (23 June 2021  08:44 UTC)
found at http://weather.rap.ucar.edu/surface/
 
CYBU 230800Z AUTO 26008KT 9SM FEW130 17/12 A2939 RMK SLP954 DENSITY ALT 2400FT
CYBU 230700Z AUTO 30008KT 9SM BKN096 BKN120 BKN140 19/12 A2938 RMK SLP950 DENSITY ALT 2600FT
CYBU 230600Z AUTO 25006KT 9SM BKN120 BKN160 18/13 A2938 RMK SLP951 DENSITY ALT 2500FT
CYBU 230500Z AUTO 27006G15KT 220V310 9SM FEW091 BKN130 20/13 A2938 RMK LTNG DIST NE E SLP951 DENSITY ALT 2800FT
CYBU 230415Z AUTO 20008G15KT 9SM BKN100 OVC120 20/14 A2937 RMK LTNG DIST N PRESFR SLP950 DENSITY ALT 2800FT
CYBU 230403Z AUTO 20014G25KT 9SM -RA FEW091 BKN110 OVC140 21/14 A2939 RMK LTNG DIST N NW SLP953 DENSITY ALT 2900FT
CYBU 230400Z AUTO 22011KT 9SM FEW096 BKN120 BKN140 OVC170 20/13 A2939 RMK LTNG DIST N NW PRESRR SLP959 DENSITY ALT 2800FT
CYBU 230300Z AUTO 25007KT 200V290 9SM BKN110 OVC170 21/15 A2939 RMK SLP958 DENSITY ALT 2900FT
CYBU 230200Z AUTO 24005KT 9SM SCT160 BKN180 23/15 A2939 RMK SLP956 DENSITY ALT 3100FT
CYBU 230100Z AUTO 26009KT 9SM CLR 25/14 A2941 RMK SLP962 DENSITY ALT 3300FT
CYBU 230000Z AUTO 22007KT 9SM FEW200 25/14 A2942 RMK SLP965 DENSITY ALT 3300FT
CYBU 222300Z AUTO 21009KT 9SM CLR 27/14 A2943 RMK SLP970 DENSITY ALT 3500FT
CYBU 222200Z AUTO 22009G15KT 9SM CLR 26/14 A2946 RMK SLP980 DENSITY ALT 3300FT
CYBU 222100Z AUTO 21008KT 9SM CLR 27/14 A2948 RMK SLP986 DENSITY ALT 3400FT
 
CWBU 230800Z AUTO 29008KT 16/12 RMK AO1 SLP949 T01640116 53004
CWBU 230700Z AUTO 31007KT 19/11 RMK AO1 SLP945 T01860114 55005
CWBU 230600Z AUTO 27006KT 17/13 RMK AO1 SLP946 T01740127 58006
CWBU 230500Z AUTO 30006KT 20/12 RMK AO1 PK WND 23020/0402 SLP946 T01980122 58004
CWBU 230400Z AUTO 23008KT 21/12 RMK AO1 SLP953 T02100124 56004
CWBU 230300Z AUTO 25006KT 21/14 RMK AO1 SLP953 T02110136 55008
CWBU 230200Z AUTO 27005KT 23/14 RMK AO1 SLP951 T02310137 58014
CWBU 230100Z AUTO 28007KT 24/13 RMK AO1 SLP957 T02350129 56017
CWBU 230000Z AUTO 25007KT 25/13 RMK AO1 SLP960 T02460128 56020
CWBU 222300Z AUTO 24008KT 27/12 RMK AO1 SLP964 T02690124 58021
CWBU 222200Z AUTO 25009KT 26/12 RMK AO1 SLP975 T02570123 56019
CWBU 222100Z AUTO 24010G15KT 26/10 RMK AO1 SLP981 T02630100 56022
 
CWFF 230800Z AUTO 28008KT 16/10 RMK AO1 SLP959 T01550104 53002
CWFF 230700Z AUTO 27006KT 18/10 RMK AO1 SLP957 T01820096 55000
CWFF 230600Z AUTO 24010KT 18/09 RMK AO1 SLP955 T01840093 58004
CWFF 230500Z AUTO 24009KT 19/10 RMK AO1 SLP958 T01850095 56004
CWFF 230400Z AUTO 23008KT 20/10 RMK AO1 SLP959 T01990100 56010
CWFF 230300Z AUTO 21006KT 21/12 RMK AO1 SLP961 T02130123 56013
CWFF 230200Z AUTO 21006KT 23/12 RMK AO1 SLP965 T02270115 58013
CWFF 230100Z AUTO 24007KT 25/10 RMK AO1 PK WND 26017/0021 SLP971 T02470095 56015
CWFF 230000Z AUTO 26014G19KT 27/08 RMK AO1 PK WND 27020/2307 SLP976 T02700075 56016
CWFF 222300Z AUTO 26013G19KT 28/08 RMK AO1 PK WND 26019/2245 SLP979 T02810075 58016
CWFF 222200Z AUTO 27011KT 27/08 RMK AO1 PK WND 27020/2132 SLP988 T02680078 58013
CWFF 222100Z AUTO 27010G16KT 28/07 RMK AO1 PK WND 25019/2035 SLP992 T02840072 56016